createdAt,value
2022-10-22T00:00:53.103Z,95009.66
2022-10-22T00:03:19.433Z,95016.31
2022-10-22T00:05:45.799Z,95022.22
2022-10-22T00:08:12.158Z,95011.47
2022-10-22T00:10:38.525Z,95009.25
2022-10-22T00:13:04.911Z,95032.44
2022-10-22T00:15:31.248Z,95030.59
2022-10-22T00:17:57.614Z,95029.91
2022-10-22T00:20:23.967Z,95030.41
2022-10-22T00:25:21.607Z,95041.69
2022-10-22T00:27:47.989Z,95028.38
2022-10-22T00:30:14.353Z,95031.38
2022-10-22T00:32:40.793Z,95033.75
2022-10-22T00:35:07.385Z,95040.34
2022-10-22T00:37:33.747Z,95032.66
2022-10-22T00:40:00.130Z,95023.56
2022-10-22T00:42:26.474Z,95033.16
2022-10-22T00:44:52.831Z,95027.56
2022-10-22T00:47:19.159Z,95034.16
2022-10-22T00:49:45.520Z,95036.50
2022-10-22T00:52:11.858Z,95045.59
2022-10-22T00:54:38.213Z,95053.53
2022-10-22T00:57:04.597Z,95059.34
2022-10-22T00:59:30.953Z,95069.19
2022-10-22T01:01:57.329Z,95081.66
2022-10-22T01:04:23.713Z,95082.38
2022-10-22T01:06:50.059Z,95070.03
2022-10-22T01:09:16.395Z,95069.00
2022-10-22T01:11:42.746Z,95083.81
2022-10-22T01:14:09.083Z,95090.13
2022-10-22T01:16:35.453Z,95085.59
2022-10-22T01:19:01.845Z,95072.91
2022-10-22T01:21:28.200Z,95075.63
2022-10-22T01:23:54.567Z,95084.44
2022-10-22T01:26:21.261Z,95076.75
2022-10-22T01:28:47.654Z,95077.34
2022-10-22T01:31:14.017Z,95076.81
2022-10-22T01:33:40.385Z,95082.22
2022-10-22T01:36:06.730Z,95082.06
2022-10-22T01:38:33.105Z,95083.56
2022-10-22T01:40:59.482Z,95085.22
2022-10-22T01:43:25.866Z,95098.78
2022-10-22T01:45:52.230Z,95094.41
2022-10-22T01:48:18.581Z,95094.00
2022-10-22T01:50:44.934Z,95082.16
2022-10-22T01:53:11.326Z,95060.97
2022-10-22T01:55:37.692Z,95065.41
2022-10-22T01:58:04.153Z,95070.81
2022-10-22T02:00:30.590Z,95067.13
2022-10-22T02:02:56.984Z,95062.22
2022-10-22T02:05:23.353Z,95064.22
2022-10-22T02:07:49.729Z,95053.91
2022-10-22T02:10:16.085Z,95052.88
2022-10-22T02:12:42.842Z,95052.34
2022-10-22T02:15:09.455Z,95052.88
2022-10-22T02:17:35.833Z,95055.69
2022-10-22T02:20:02.201Z,95061.53
2022-10-22T02:22:28.564Z,95076.41
2022-10-22T02:24:54.912Z,95078.06
2022-10-22T02:27:25.822Z,95079.00
2022-10-22T02:29:53.402Z,95089.94
2022-10-22T02:32:19.750Z,95095.63
2022-10-22T02:34:46.109Z,95098.28
2022-10-22T02:37:12.852Z,95108.25
2022-10-22T02:39:39.225Z,95110.84
2022-10-22T02:42:05.589Z,95113.69
2022-10-22T02:44:31.973Z,95100.81
2022-10-22T02:46:58.344Z,95100.75
2022-10-22T02:49:24.707Z,95107.19
2022-10-22T02:51:51.080Z,95096.00
2022-10-22T02:54:17.442Z,95103.31
2022-10-22T02:56:43.779Z,95101.31
2022-10-22T02:59:10.157Z,95104.28
2022-10-22T03:01:36.550Z,95104.63
2022-10-22T03:04:02.907Z,95102.78
2022-10-22T03:06:29.283Z,95107.53
2022-10-22T03:08:55.693Z,95107.53
2022-10-22T03:11:22.138Z,95111.34
2022-10-22T03:13:48.492Z,95109.16
2022-10-22T03:16:14.847Z,95106.97
2022-10-22T03:18:41.198Z,95110.19
2022-10-22T03:21:07.568Z,95112.28
2022-10-22T03:23:33.921Z,95119.97
2022-10-22T03:28:31.552Z,95123.38
2022-10-22T03:30:57.921Z,95112.16
2022-10-22T03:33:24.282Z,95122.66
2022-10-22T03:35:50.638Z,95108.81
2022-10-22T03:38:16.991Z,95113.91
2022-10-22T03:40:43.361Z,95123.28
2022-10-22T03:43:09.719Z,95118.88
2022-10-22T03:45:36.059Z,95121.66
2022-10-22T03:48:02.431Z,95126.41
2022-10-22T03:50:28.796Z,95133.72
2022-10-22T03:52:55.221Z,95123.34
2022-10-22T03:55:21.577Z,95123.16
2022-10-22T03:57:47.933Z,95129.06
2022-10-22T04:00:14.297Z,95131.97
2022-10-22T04:02:40.663Z,95131.16
2022-10-22T04:05:07.069Z,95138.09
2022-10-22T04:07:33.511Z,95145.91
2022-10-22T04:09:59.870Z,95144.69
2022-10-22T04:12:26.214Z,95143.28
2022-10-22T04:14:52.567Z,95154.53
2022-10-22T04:17:18.919Z,95146.09
2022-10-22T04:19:45.294Z,95151.59
2022-10-22T04:22:11.645Z,95149.22
2022-10-22T04:24:38.063Z,95158.25
2022-10-22T04:27:04.494Z,95151.81
2022-10-22T04:29:30.855Z,95149.16
2022-10-22T04:31:57.225Z,95147.38
2022-10-22T04:34:23.576Z,95152.00
2022-10-22T04:36:49.935Z,95159.44
2022-10-22T04:39:16.297Z,95161.25
2022-10-22T04:41:42.664Z,95175.94
2022-10-22T04:44:12.326Z,95172.81
2022-10-22T04:46:42.579Z,95171.19
2022-10-22T04:49:08.939Z,95169.59
2022-10-22T04:51:35.293Z,95167.81
2022-10-22T04:54:01.667Z,95168.91
2022-10-22T04:56:28.001Z,95177.25
2022-10-22T04:58:54.358Z,95180.38
2022-10-22T05:01:20.768Z,95176.19
2022-10-22T05:03:47.175Z,95167.09
2022-10-22T05:08:44.842Z,95174.34
2022-10-22T05:11:11.282Z,95183.84
2022-10-22T05:13:37.621Z,95184.66
2022-10-22T05:16:03.993Z,95177.13
2022-10-22T05:18:30.329Z,95179.31
2022-10-22T05:20:56.671Z,95180.06
2022-10-22T05:23:23.043Z,95184.88
2022-10-22T05:25:49.396Z,95189.34
2022-10-22T05:28:15.760Z,95180.72
2022-10-22T05:30:42.095Z,95184.53
2022-10-22T05:33:08.456Z,95187.19
2022-10-22T05:35:34.822Z,95188.22
2022-10-22T05:38:01.178Z,95195.47
2022-10-22T05:40:31.119Z,95197.44
2022-10-22T05:42:57.636Z,95202.22
2022-10-22T05:45:24.010Z,95206.19
2022-10-22T05:47:50.368Z,95209.81
2022-10-22T05:50:16.741Z,95209.41
2022-10-22T05:52:43.197Z,95208.97
2022-10-22T05:55:09.787Z,95215.78
2022-10-22T05:57:36.123Z,95221.75
2022-10-22T06:00:02.481Z,95228.31
2022-10-22T06:02:28.944Z,95216.97
2022-10-22T06:04:55.344Z,95224.72
2022-10-22T06:07:21.705Z,95220.78
2022-10-22T06:09:48.066Z,95222.28
2022-10-22T06:12:14.436Z,95227.38
2022-10-22T06:14:40.788Z,95220.44
2022-10-22T06:17:07.219Z,95223.00
2022-10-22T06:19:33.561Z,95230.84
2022-10-22T06:21:59.931Z,95224.59
2022-10-22T06:24:26.286Z,95229.94
2022-10-22T06:26:52.653Z,95233.50
2022-10-22T06:29:18.996Z,95240.69
2022-10-22T06:31:45.389Z,95250.25
2022-10-22T06:34:11.756Z,95245.22
2022-10-22T06:36:38.183Z,95250.38
2022-10-22T06:39:04.578Z,95257.00
2022-10-22T06:41:30.932Z,95261.09
2022-10-22T06:43:57.460Z,95266.34
2022-10-22T06:46:24.128Z,95268.28
2022-10-22T06:48:50.487Z,95276.47
2022-10-22T06:51:16.862Z,95273.84
2022-10-22T06:53:43.238Z,95275.31
2022-10-22T06:56:09.596Z,95285.03
2022-10-22T06:58:35.978Z,95282.03
2022-10-22T07:01:02.442Z,95283.72
2022-10-22T07:03:28.863Z,95292.97
2022-10-22T07:05:55.242Z,95290.84
2022-10-22T07:08:21.593Z,95285.72
2022-10-22T07:10:47.979Z,95290.28
2022-10-22T07:13:14.346Z,95299.09
2022-10-22T07:15:40.753Z,95295.75
2022-10-22T07:18:07.094Z,95296.72
2022-10-22T07:20:33.471Z,95288.50
2022-10-22T07:22:59.817Z,95289.19
2022-10-22T07:25:26.260Z,95298.25
2022-10-22T07:27:52.615Z,95291.28
2022-10-22T07:30:18.971Z,95283.03
2022-10-22T07:32:45.330Z,95283.44
2022-10-22T07:35:11.669Z,95288.66
2022-10-22T07:37:38.205Z,95289.00
2022-10-22T07:40:04.698Z,95298.56
2022-10-22T07:42:31.065Z,95306.84
2022-10-22T07:44:57.410Z,95291.00
2022-10-22T07:47:23.773Z,95287.22
2022-10-22T07:49:50.134Z,95292.81
2022-10-22T07:52:16.467Z,95293.47
2022-10-22T07:54:42.813Z,95288.84
2022-10-22T07:57:09.163Z,95295.09
2022-10-22T07:59:35.543Z,95301.28
2022-10-22T08:02:01.902Z,95311.44
2022-10-22T08:04:28.298Z,95310.28
2022-10-22T08:06:54.680Z,95304.72
2022-10-22T08:09:21.046Z,95307.25
2022-10-22T08:11:47.387Z,95307.22
2022-10-22T08:14:13.746Z,95306.16
2022-10-22T08:16:40.095Z,95309.78
2022-10-22T08:19:06.461Z,95314.50
2022-10-22T08:21:32.829Z,95314.44
2022-10-22T08:23:59.223Z,95313.63
2022-10-22T08:26:25.633Z,95314.94
2022-10-22T08:28:51.963Z,95315.69
2022-10-22T08:31:18.319Z,95323.06
2022-10-22T08:33:44.676Z,95321.38
2022-10-22T08:36:11.061Z,95317.22
2022-10-22T08:38:37.459Z,95318.00
2022-10-22T08:41:03.804Z,95318.66
2022-10-22T08:43:30.256Z,95328.56
2022-10-22T08:45:56.591Z,95328.53
2022-10-22T08:48:22.951Z,95327.84
2022-10-22T08:50:49.297Z,95339.78
2022-10-22T08:53:15.657Z,95341.09
2022-10-22T08:55:42.007Z,95334.41
2022-10-22T08:58:08.365Z,95332.03
2022-10-22T09:00:34.727Z,95327.34
2022-10-22T09:03:01.075Z,95326.25
2022-10-22T09:05:27.428Z,95329.22
2022-10-22T09:07:53.779Z,95329.25
2022-10-22T09:10:20.149Z,95330.09
2022-10-22T09:12:46.509Z,95325.22
2022-10-22T09:15:12.882Z,95320.25
2022-10-22T09:17:39.505Z,95321.00
2022-10-22T09:20:06.157Z,95329.03
2022-10-22T09:22:32.801Z,95320.91
2022-10-22T09:24:59.176Z,95319.22
2022-10-22T09:27:25.524Z,95327.19
2022-10-22T09:29:51.879Z,95329.41
2022-10-22T09:32:18.221Z,95331.66
2022-10-22T09:34:44.555Z,95330.75
2022-10-22T09:37:10.901Z,95340.50
2022-10-22T09:39:37.259Z,95338.75
2022-10-22T09:42:03.617Z,95335.19
2022-10-22T09:44:29.967Z,95336.94
2022-10-22T09:46:56.309Z,95337.09
2022-10-22T09:49:22.657Z,95322.06
2022-10-22T09:51:49.008Z,95319.84
2022-10-22T09:54:15.354Z,95328.28
2022-10-22T09:56:41.740Z,95331.53
2022-10-22T09:59:08.115Z,95331.69
2022-10-22T10:01:34.487Z,95324.38
2022-10-22T10:04:00.881Z,95329.09
2022-10-22T10:06:27.263Z,95335.59
2022-10-22T10:08:53.680Z,95335.03
2022-10-22T10:11:20.123Z,95333.44
2022-10-22T10:13:46.892Z,95336.59
2022-10-22T10:16:13.302Z,95334.84
2022-10-22T10:18:39.640Z,95329.72
2022-10-22T10:21:06.045Z,95331.13
2022-10-22T10:23:32.427Z,95341.34
2022-10-22T10:25:58.774Z,95334.63
2022-10-22T10:28:25.129Z,95336.41
2022-10-22T10:30:51.490Z,95334.28
2022-10-22T10:33:17.835Z,95340.13
2022-10-22T10:35:44.175Z,95334.13
2022-10-22T10:38:10.584Z,95333.94
2022-10-22T10:40:36.935Z,95326.09
2022-10-22T10:43:03.312Z,95323.22
2022-10-22T10:45:29.668Z,95320.94
2022-10-22T10:47:56.017Z,95324.59
2022-10-22T10:50:22.373Z,95320.19
2022-10-22T10:52:48.731Z,95320.03
2022-10-22T10:55:15.091Z,95316.97
2022-10-22T10:57:41.648Z,95316.44
2022-10-22T11:00:08.265Z,95320.41
2022-10-22T11:02:34.614Z,95317.94
2022-10-22T11:05:00.984Z,95311.69
2022-10-22T11:07:34.573Z,95311.28
2022-10-22T11:10:01.400Z,95316.78
2022-10-22T11:12:27.770Z,95309.41
2022-10-22T11:14:54.133Z,95307.72
2022-10-22T11:17:20.498Z,95298.59
2022-10-22T11:19:51.562Z,95307.97
2022-10-22T11:22:19.396Z,95297.06
2022-10-22T11:24:47.770Z,95296.34
2022-10-22T11:27:14.118Z,95290.78
2022-10-22T11:29:40.474Z,95288.97
2022-10-22T11:32:06.852Z,95288.66
2022-10-22T11:34:34.358Z,95286.72
2022-10-22T11:37:01.020Z,95284.72
2022-10-22T11:39:27.387Z,95287.59
2022-10-22T11:41:53.728Z,95279.59
2022-10-22T11:44:20.160Z,95277.69
2022-10-22T11:46:46.546Z,95277.34
2022-10-22T11:49:12.914Z,95278.88
2022-10-22T11:51:39.298Z,95285.75
2022-10-22T11:54:05.667Z,95281.28
2022-10-22T11:56:32.029Z,95276.94
2022-10-22T11:58:58.418Z,95281.47
2022-10-22T12:01:24.848Z,95272.94
2022-10-22T12:03:51.301Z,95283.03
2022-10-22T12:06:17.687Z,95270.22
2022-10-22T12:08:44.110Z,95269.94
2022-10-22T12:11:10.503Z,95269.53
2022-10-22T12:13:36.867Z,95261.22
2022-10-22T12:16:03.239Z,95264.38
2022-10-22T12:18:29.596Z,95262.47
2022-10-22T12:20:55.941Z,95262.91
2022-10-22T12:23:22.326Z,95250.47
2022-10-22T12:25:48.686Z,95251.53
2022-10-22T12:28:15.051Z,95253.91
2022-10-22T12:30:41.403Z,95246.84
2022-10-22T12:33:07.755Z,95241.75
2022-10-22T12:35:34.106Z,95243.00
2022-10-22T12:38:00.479Z,95235.63
2022-10-22T12:40:26.819Z,95223.75
2022-10-22T12:42:53.178Z,95228.31
2022-10-22T12:45:19.517Z,95233.41
2022-10-22T12:47:45.867Z,95226.53
2022-10-22T12:50:12.235Z,95234.00
2022-10-22T12:52:38.790Z,95234.50
2022-10-22T12:55:05.291Z,95235.44
2022-10-22T12:57:31.642Z,95235.06
2022-10-22T12:59:58.040Z,95232.50
2022-10-22T13:02:24.452Z,95229.66
2022-10-22T13:04:50.921Z,95222.94
2022-10-22T13:07:19.790Z,95215.44
2022-10-22T13:09:47.595Z,95214.47
2022-10-22T13:12:13.952Z,95213.47
2022-10-22T13:14:40.301Z,95215.88
2022-10-22T13:17:06.641Z,95214.78
2022-10-22T13:19:33.000Z,95214.28
2022-10-22T13:21:59.347Z,95215.00
2022-10-22T13:24:25.683Z,95213.56
2022-10-22T13:26:52.059Z,95210.00
2022-10-22T13:29:18.400Z,95211.72
2022-10-22T13:31:44.760Z,95212.72
2022-10-22T13:34:13.015Z,95211.56
2022-10-22T13:36:41.503Z,95215.63
2022-10-22T13:39:07.871Z,95211.53
2022-10-22T13:41:34.297Z,95220.06
2022-10-22T13:44:00.652Z,95216.50
2022-10-22T13:46:26.991Z,95210.00
2022-10-22T13:48:53.343Z,95208.38
2022-10-22T13:51:19.689Z,95213.16
2022-10-22T13:53:46.053Z,95206.81
2022-10-22T13:56:12.404Z,95217.63
2022-10-22T13:58:40.147Z,95213.06
2022-10-22T14:01:06.569Z,95220.56
2022-10-22T14:03:32.940Z,95206.78
2022-10-22T14:05:59.540Z,95210.69
2022-10-22T14:08:25.890Z,95204.88
2022-10-22T14:10:52.291Z,95199.41
2022-10-22T14:13:18.662Z,95191.81
2022-10-22T14:15:45.025Z,95188.38
2022-10-22T14:18:11.382Z,95185.34
2022-10-22T14:20:37.739Z,95182.31
2022-10-22T14:23:04.116Z,95173.25
2022-10-22T14:25:30.493Z,95175.31
2022-10-22T14:27:56.858Z,95183.19
2022-10-22T14:30:23.211Z,95172.53
2022-10-22T14:32:49.591Z,95167.81
2022-10-22T14:35:15.944Z,95169.28
2022-10-22T14:37:42.295Z,95158.75
2022-10-22T14:40:08.651Z,95167.06
2022-10-22T14:42:35.030Z,95169.03
2022-10-22T14:45:01.415Z,95163.38
2022-10-22T14:47:27.791Z,95158.06
2022-10-22T14:49:54.152Z,95156.75
2022-10-22T14:52:20.510Z,95153.47
2022-10-22T14:54:46.874Z,95157.00
2022-10-22T14:57:13.217Z,95154.84
2022-10-22T14:59:39.610Z,95163.72
2022-10-22T15:02:05.973Z,95153.09
2022-10-22T15:04:32.315Z,95158.41
2022-10-22T15:06:58.683Z,95159.28
2022-10-22T15:09:25.024Z,95149.81
2022-10-22T15:11:51.368Z,95152.53
2022-10-22T15:14:17.718Z,95150.41
2022-10-22T15:16:44.085Z,95155.13
2022-10-22T15:19:10.428Z,95149.44
2022-10-22T15:21:36.826Z,95160.50
2022-10-22T15:24:03.212Z,95156.38
2022-10-22T15:26:29.571Z,95149.72
2022-10-22T15:28:55.910Z,95144.41
2022-10-22T15:31:22.307Z,95144.69
2022-10-22T15:33:48.676Z,95147.69
2022-10-22T15:36:15.035Z,95147.53
2022-10-22T15:38:41.393Z,95157.00
2022-10-22T15:41:07.735Z,95158.13
2022-10-22T15:43:34.091Z,95158.63
2022-10-22T15:46:00.459Z,95159.56
2022-10-22T15:48:26.800Z,95159.69
2022-10-22T15:50:53.150Z,95162.22
2022-10-22T15:53:19.499Z,95161.81
2022-10-22T15:55:45.852Z,95150.78
2022-10-22T15:58:12.191Z,95144.59
2022-10-22T16:00:38.602Z,95151.66
2022-10-22T16:03:05.033Z,95148.28
2022-10-22T16:05:31.413Z,95136.53
2022-10-22T16:07:57.807Z,95138.22
2022-10-22T16:10:24.246Z,95130.97
2022-10-22T16:12:50.630Z,95131.19
2022-10-22T16:15:16.974Z,95131.34
2022-10-22T16:17:43.327Z,95133.75
2022-10-22T16:20:09.736Z,95130.56
2022-10-22T16:22:36.124Z,95140.22
2022-10-22T16:25:02.462Z,95135.41
2022-10-22T16:27:28.809Z,95142.47
2022-10-22T16:29:55.278Z,95145.31
2022-10-22T16:32:21.699Z,95146.00
2022-10-22T16:34:48.070Z,95151.88
2022-10-22T16:37:14.415Z,95155.97
2022-10-22T16:39:40.791Z,95149.38
2022-10-22T16:42:07.129Z,95144.59
2022-10-22T16:44:33.525Z,95154.31
2022-10-22T16:46:59.875Z,95146.69
2022-10-22T16:49:26.237Z,95152.22
2022-10-22T16:51:52.597Z,95151.16
2022-10-22T16:54:18.937Z,95153.09
2022-10-22T16:56:45.304Z,95155.03
2022-10-22T16:59:11.640Z,95152.94
2022-10-22T17:01:41.022Z,95162.34
2022-10-22T17:04:07.788Z,95172.00
2022-10-22T17:06:34.146Z,95176.47
2022-10-22T17:09:00.597Z,95181.50
2022-10-22T17:11:27.003Z,95175.78
2022-10-22T17:13:53.355Z,95169.47
2022-10-22T17:16:19.696Z,95168.72
2022-10-22T17:21:17.300Z,95176.47
2022-10-22T17:23:43.677Z,95175.69
2022-10-22T17:26:10.025Z,95176.88
2022-10-22T17:28:36.432Z,95179.84
2022-10-22T17:31:02.778Z,95178.91
2022-10-22T17:33:29.132Z,95184.91
2022-10-22T17:35:55.493Z,95186.00
2022-10-22T17:38:21.837Z,95184.59
2022-10-22T17:40:48.195Z,95177.97
2022-10-22T17:43:14.566Z,95185.03
2022-10-22T17:45:40.953Z,95194.53
2022-10-22T17:48:07.302Z,95189.28
2022-10-22T17:50:33.674Z,95188.41
2022-10-22T17:53:00.045Z,95186.66
2022-10-22T17:55:26.424Z,95180.78
2022-10-22T17:57:52.794Z,95188.91
2022-10-22T18:02:46.426Z,95192.28
2022-10-22T18:05:12.785Z,95196.16
2022-10-22T18:07:39.140Z,95197.66
2022-10-22T18:10:05.505Z,95197.03
2022-10-22T18:12:31.865Z,95202.75
2022-10-22T18:14:58.217Z,95198.38
2022-10-22T18:17:24.594Z,95194.00
2022-10-22T18:19:50.967Z,95196.94
2022-10-22T18:22:17.342Z,95194.69
2022-10-22T18:24:43.699Z,95198.97
2022-10-22T18:27:10.058Z,95194.78
2022-10-22T18:29:36.409Z,95195.97
2022-10-22T18:32:02.770Z,95207.56
2022-10-22T18:34:29.139Z,95199.31
2022-10-22T18:36:55.541Z,95197.06
2022-10-22T18:39:21.939Z,95205.22
2022-10-22T18:41:48.374Z,95207.25
2022-10-22T18:44:14.732Z,95205.75
2022-10-22T18:46:41.095Z,95199.66
2022-10-22T18:49:07.449Z,95205.63
2022-10-22T18:51:33.813Z,95204.03
2022-10-22T18:54:06.028Z,95203.28
2022-10-22T18:56:44.472Z,95205.97
2022-10-22T18:59:10.836Z,95200.16
2022-10-22T19:01:37.240Z,95201.91
2022-10-22T19:04:03.640Z,95203.28
2022-10-22T19:06:33.208Z,95198.97
2022-10-22T19:09:02.236Z,95197.06
2022-10-22T19:11:28.641Z,95204.16
2022-10-22T19:13:54.995Z,95193.75
2022-10-22T19:16:21.356Z,95198.25
2022-10-22T19:18:47.701Z,95194.63
2022-10-22T19:21:14.063Z,95194.09
2022-10-22T19:23:40.440Z,95200.22
2022-10-22T19:26:06.865Z,95206.44
2022-10-22T19:28:33.204Z,95203.84
2022-10-22T19:30:59.559Z,95203.00
2022-10-22T19:33:25.914Z,95198.28
2022-10-22T19:35:52.279Z,95205.47
2022-10-22T19:38:18.645Z,95197.84
2022-10-22T19:40:44.989Z,95192.72
2022-10-22T19:43:12.304Z,95197.00
2022-10-22T19:45:39.215Z,95194.97
2022-10-22T19:48:05.593Z,95195.50
2022-10-22T19:50:31.943Z,95196.13
2022-10-22T19:52:58.308Z,95186.16
2022-10-22T19:55:24.663Z,95178.56
2022-10-22T19:57:51.015Z,95185.75
2022-10-22T20:00:17.381Z,95195.50
2022-10-22T20:02:43.732Z,95185.41
2022-10-22T20:05:10.136Z,95185.63
2022-10-22T20:07:36.513Z,95189.16
2022-10-22T20:10:02.868Z,95189.50
2022-10-22T20:12:29.237Z,95185.63
2022-10-22T20:14:55.588Z,95192.50
2022-10-22T20:17:21.945Z,95190.66
2022-10-22T20:19:48.298Z,95194.63
2022-10-22T20:22:17.799Z,95198.19
2022-10-22T20:24:45.198Z,95197.63
2022-10-22T20:27:11.573Z,95202.25
2022-10-22T20:29:37.945Z,95213.06
2022-10-22T20:32:06.679Z,95209.22
2022-10-22T20:34:35.113Z,95216.72
2022-10-22T20:37:01.477Z,95208.13
2022-10-22T20:39:27.845Z,95201.28
2022-10-22T20:41:54.197Z,95200.09
2022-10-22T20:44:20.541Z,95202.47
2022-10-22T20:46:46.959Z,95204.72
2022-10-22T20:49:13.375Z,95207.38
2022-10-22T20:51:39.732Z,95202.56
2022-10-22T20:54:06.098Z,95209.84
2022-10-22T20:56:32.455Z,95207.28
2022-10-22T20:58:58.807Z,95202.69
2022-10-22T21:01:25.274Z,95208.13
2022-10-22T21:03:51.658Z,95216.06
2022-10-22T21:06:18.022Z,95217.34
2022-10-22T21:08:44.422Z,95216.28
2022-10-22T21:11:10.801Z,95215.53
2022-10-22T21:13:37.170Z,95222.50
2022-10-22T21:16:03.526Z,95217.31
2022-10-22T21:18:29.906Z,95221.91
2022-10-22T21:20:56.255Z,95219.63
2022-10-22T21:23:22.604Z,95216.94
2022-10-22T21:25:48.977Z,95218.97
2022-10-22T21:28:15.327Z,95214.34
2022-10-22T21:30:41.698Z,95216.56
2022-10-22T21:33:08.068Z,95216.16
2022-10-22T21:35:34.427Z,95213.16
2022-10-22T21:38:00.782Z,95206.09
2022-10-22T21:40:27.166Z,95214.69
2022-10-22T21:42:53.500Z,95218.44
2022-10-22T21:45:22.315Z,95223.66
2022-10-22T21:47:48.938Z,95216.16
2022-10-22T21:50:15.302Z,95221.69
2022-10-22T21:52:41.683Z,95219.03
2022-10-22T21:55:08.028Z,95213.88
2022-10-22T21:57:34.404Z,95214.56
2022-10-22T22:00:00.749Z,95215.72
2022-10-22T22:02:27.122Z,95211.19
2022-10-22T22:04:53.468Z,95215.88
2022-10-22T22:07:19.834Z,95214.38
2022-10-22T22:09:46.175Z,95210.91
2022-10-22T22:12:12.513Z,95215.59
2022-10-22T22:14:38.880Z,95216.44
2022-10-22T22:17:05.365Z,95212.59
2022-10-22T22:19:31.746Z,95216.34
2022-10-22T22:21:58.083Z,95218.13
2022-10-22T22:24:24.451Z,95215.53
2022-10-22T22:26:52.256Z,95213.19
2022-10-22T22:29:18.629Z,95211.59
2022-10-22T22:31:44.987Z,95207.34
2022-10-22T22:34:11.331Z,95210.81
2022-10-22T22:36:37.706Z,95215.59
2022-10-22T22:39:04.072Z,95208.75
2022-10-22T22:41:30.428Z,95202.22
2022-10-22T22:43:56.805Z,95200.56
2022-10-22T22:46:23.171Z,95205.25
2022-10-22T22:48:49.523Z,95199.91
2022-10-22T22:51:15.856Z,95206.41
2022-10-22T22:53:42.203Z,95202.22
2022-10-22T22:56:08.547Z,95202.22
2022-10-22T22:58:34.893Z,95196.22
2022-10-22T23:01:01.263Z,95196.66
2022-10-22T23:03:27.624Z,95195.56
2022-10-22T23:05:53.991Z,95202.84
2022-10-22T23:08:20.335Z,95200.59
2022-10-22T23:10:46.682Z,95208.28
2022-10-22T23:13:13.032Z,95206.53
2022-10-22T23:15:39.391Z,95199.69
2022-10-22T23:18:05.761Z,95191.38
2022-10-22T23:20:32.135Z,95185.88
2022-10-22T23:22:58.529Z,95186.72
2022-10-22T23:25:24.883Z,95194.41
2022-10-22T23:27:51.274Z,95198.94
2022-10-22T23:30:17.625Z,95193.66
2022-10-22T23:32:43.997Z,95196.81
2022-10-22T23:35:10.370Z,95193.16
2022-10-22T23:37:36.721Z,95190.91
2022-10-22T23:40:03.094Z,95182.72
2022-10-22T23:42:29.484Z,95180.88
2022-10-22T23:44:55.880Z,95179.63
2022-10-22T23:47:22.218Z,95182.13
2022-10-22T23:49:48.566Z,95183.06
2022-10-22T23:52:14.921Z,95184.47
2022-10-22T23:54:41.270Z,95184.56
2022-10-22T23:57:07.645Z,95181.38
2022-10-22T23:59:34.002Z,95180.53
